Time;durP1;ratioP1;P1;durP2;ratioP2;P2;SDS_P1;SDS_P2;PMS_P1;PMS_P2;Temp;Humidity;BMP_temperature;BMP_pressure;BME280_temperature;BME280_humidity;BME280_pressure;Samples;Min_cycle;Max_cycle;Signal;HPM_P1;HPM_P2
2022/03/07 00:02:39;;;;;;;14.90;7.70;;;-0.90;99.90;;;;;;4418113;22;20557;-40
2022/03/07 00:05:04;;;;;;;13.97;8.67;;;-0.90;99.90;;;;;;5094974;28;20417;-39
2022/03/07 00:07:30;;;;;;;15.57;8.40;;;-0.80;99.90;;;;;;5094609;28;20425;-41
2022/03/07 00:09:56;;;;;;;15.10;7.57;;;-0.80;99.90;;;;;;5094609;28;20240;-39
2022/03/07 00:12:22;;;;;;;12.27;7.97;;;-0.90;99.90;;;;;;5094576;28;20171;-42
2022/03/07 00:14:48;;;;;;;10.17;6.90;;;-0.90;99.90;;;;;;5094726;28;20189;-43
2022/03/07 00:17:14;;;;;;;9.03;6.30;;;-0.90;99.90;;;;;;5094829;28;20955;-38
2022/03/07 00:19:39;;;;;;;10.40;6.17;;;-0.90;99.90;;;;;;5076585;28;20408;-38
2022/03/07 00:22:05;;;;;;;12.43;6.97;;;-0.90;99.90;;;;;;5094708;28;20178;-40
2022/03/07 00:24:31;;;;;;;10.17;6.40;;;-1.00;99.90;;;;;;5095058;28;20217;-46
2022/03/07 00:26:56;;;;;;;7.73;5.80;;;-1.00;99.90;;;;;;5094215;28;20278;-46
2022/03/07 00:29:22;;;;;;;10.63;6.80;;;-1.10;99.90;;;;;;5094763;28;20175;-44
2022/03/07 00:31:47;;;;;;;9.77;6.37;;;-1.20;99.90;;;;;;5094199;28;20225;-46
2022/03/07 00:34:14;;;;;;;11.63;6.37;;;-1.20;99.90;;;;;;5094370;28;20190;-45
2022/03/07 00:36:40;;;;;;;11.33;7.10;;;-1.30;99.90;;;;;;5094056;28;20183;-46
2022/03/07 00:39:05;;;;;;;10.83;7.20;;;-1.30;99.90;;;;;;5094031;28;20859;-45
2022/03/07 00:41:31;;;;;;;14.60;7.80;;;-1.30;99.90;;;;;;5093963;28;20198;-48
2022/03/07 00:43:56;;;;;;;13.50;6.77;;;-1.30;99.90;;;;;;5094207;28;20232;-45
2022/03/07 00:46:22;;;;;;;11.77;6.83;;;-1.30;99.90;;;;;;5093944;28;20200;-45
2022/03/07 00:48:47;;;;;;;12.53;6.30;;;-1.40;99.90;;;;;;5093819;28;20658;-43
2022/03/07 00:51:13;;;;;;;12.20;7.47;;;-1.40;99.90;;;;;;5093868;28;20634;-44
2022/03/07 00:53:38;;;;;;;13.13;7.57;;;-1.50;99.90;;;;;;5094384;28;20179;-45
2022/03/07 00:56:07;;;;;;;12.33;6.83;;;-1.50;99.90;;;;;;5093802;28;20171;-47
2022/03/07 00:58:33;;;;;;;15.53;8.43;;;-1.60;99.90;;;;;;5093205;28;20209;-44
2022/03/07 01:00:58;;;;;;;10.40;6.80;;;-1.60;99.90;;;;;;5093588;28;20464;-46
2022/03/07 01:03:24;;;;;;;12.50;7.63;;;-1.60;99.90;;;;;;5093986;28;20643;-48
2022/03/07 01:05:49;;;;;;;10.40;7.00;;;-1.70;99.90;;;;;;5093660;28;20234;-48
2022/03/07 01:08:15;;;;;;;10.77;7.17;;;-1.70;99.90;;;;;;5093849;28;20186;-47
2022/03/07 01:10:41;;;;;;;10.67;7.60;;;-1.70;99.90;;;;;;5093797;28;20175;-45
2022/03/07 01:13:07;;;;;;;14.00;7.17;;;-1.70;99.90;;;;;;5093561;28;20212;-47
2022/03/07 01:15:33;;;;;;;15.93;7.47;;;-1.70;99.90;;;;;;5093585;28;20575;-46
2022/03/07 01:17:59;;;;;;;12.90;6.87;;;-1.60;99.90;;;;;;5093700;28;20273;-46
2022/03/07 01:20:26;;;;;;;10.83;7.17;;;-1.60;99.90;;;;;;5093883;28;20218;-45
2022/03/07 01:22:52;;;;;;;10.93;7.00;;;-1.60;99.90;;;;;;5093633;28;20413;-45
2022/03/07 01:25:18;;;;;;;11.20;7.33;;;-1.60;99.90;;;;;;5075527;28;20425;-46
2022/03/07 01:27:43;;;;;;;15.13;8.20;;;-1.60;99.90;;;;;;5094220;28;20205;-46
2022/03/07 01:30:09;;;;;;;12.83;7.43;;;-1.50;99.90;;;;;;5094923;28;20177;-42
2022/03/07 01:32:35;;;;;;;9.63;7.23;;;-1.50;99.90;;;;;;5094551;28;20193;-44
2022/03/07 01:35:02;;;;;;;12.83;7.30;;;-1.40;99.90;;;;;;5075601;28;20540;-45
2022/03/07 01:37:28;;;;;;;14.70;7.07;;;-1.40;99.90;;;;;;5093415;28;20193;-43
2022/03/07 01:39:53;;;;;;;11.87;6.90;;;-1.40;99.90;;;;;;5093824;28;20411;-44
2022/03/07 01:42:19;;;;;;;12.40;6.73;;;-1.40;99.90;;;;;;5093511;28;20568;-47
2022/03/07 01:44:44;;;;;;;13.67;7.67;;;-1.40;99.90;;;;;;5093263;28;20209;-44
2022/03/07 01:47:10;;;;;;;14.93;7.33;;;-1.40;99.90;;;;;;5093238;28;20244;-44
2022/03/07 01:49:36;;;;;;;17.03;7.73;;;-1.50;99.90;;;;;;5093266;28;20669;-45
2022/03/07 01:52:02;;;;;;;11.37;7.67;;;-1.50;99.90;;;;;;5093163;28;20190;-46
2022/03/07 01:54:28;;;;;;;14.63;7.17;;;-1.50;99.90;;;;;;5093209;28;20533;-44
2022/03/07 01:56:54;;;;;;;11.70;6.93;;;-1.50;99.90;;;;;;5093043;28;20462;-44
2022/03/07 01:59:25;;;;;;;13.80;7.73;;;-1.50;99.90;;;;;;5093143;28;20175;-45
2022/03/07 02:01:51;;;;;;;15.77;7.27;;;-1.50;99.90;;;;;;5092856;28;20465;-45
2022/03/07 02:04:17;;;;;;;8.40;6.27;;;-1.50;99.90;;;;;;5093458;28;20421;-44
2022/03/07 02:06:45;;;;;;;13.07;8.00;;;-1.50;99.90;;;;;;5093443;28;20462;-46
2022/03/07 02:09:11;;;;;;;14.00;7.63;;;-1.50;99.90;;;;;;5093397;28;20655;-45
2022/03/07 02:11:37;;;;;;;10.07;6.57;;;-1.50;99.90;;;;;;5096841;28;20427;-46
2022/03/07 02:14:17;;;;;;;14.00;7.13;;;-1.50;99.90;;;;;;5097081;28;20924;-44
2022/03/07 02:16:44;;;;;;;15.33;8.63;;;-1.50;99.90;;;;;;5096966;28;20204;-46
2022/03/07 02:19:09;;;;;;;11.00;7.63;;;-1.60;99.90;;;;;;5096630;28;20417;-45
2022/03/07 02:21:36;;;;;;;12.87;8.33;;;-1.60;99.90;;;;;;5096875;28;20590;-45
2022/03/07 02:24:02;;;;;;;15.87;8.23;;;-1.60;99.90;;;;;;5097428;28;20174;-44
2022/03/07 02:26:28;;;;;;;14.30;7.80;;;-1.60;99.90;;;;;;5096786;28;20412;-46
2022/03/07 02:28:53;;;;;;;14.80;8.20;;;-1.70;99.90;;;;;;5096848;28;20750;-44
2022/03/07 02:31:20;;;;;;;13.07;7.70;;;-1.70;99.90;;;;;;5096530;28;20219;-44
2022/03/07 02:33:46;;;;;;;19.57;8.77;;;-1.80;99.90;;;;;;5096483;28;20254;-45
2022/03/07 02:36:12;;;;;;;11.50;8.13;;;-1.80;99.90;;;;;;5096431;28;20892;-45
2022/03/07 02:38:38;;;;;;;12.77;7.40;;;-1.80;99.90;;;;;;5096319;28;20448;-47
2022/03/07 02:41:03;;;;;;;11.87;8.47;;;-1.80;99.90;;;;;;5096470;28;20293;-46
2022/03/07 02:43:29;;;;;;;13.40;7.80;;;-1.80;99.90;;;;;;5096347;28;20646;-45
2022/03/07 02:45:57;;;;;;;14.20;7.53;;;-1.80;99.90;;;;;;5096258;28;20254;-44
2022/03/07 02:48:23;;;;;;;11.83;7.60;;;-1.90;99.90;;;;;;5096248;28;20273;-46
2022/03/07 02:50:48;;;;;;;13.10;8.03;;;-1.90;99.90;;;;;;5096440;28;20416;-46
2022/03/07 02:53:14;;;;;;;10.97;7.80;;;-1.90;99.90;;;;;;5096415;28;20650;-46
2022/03/07 02:55:40;;;;;;;11.40;7.33;;;-1.90;99.90;;;;;;5096149;28;20610;-47
2022/03/07 02:58:06;;;;;;;12.60;9.07;;;-2.00;99.90;;;;;;5095948;28;20202;-45
2022/03/07 03:00:32;;;;;;;15.13;8.57;;;-2.00;99.90;;;;;;5096209;28;20215;-46
2022/03/07 03:02:57;;;;;;;13.30;8.37;;;-2.00;99.90;;;;;;5095872;28;20198;-46
2022/03/07 03:05:25;;;;;;;12.97;9.10;;;-2.00;99.90;;;;;;5095876;28;20413;-47
2022/03/07 03:07:51;;;;;;;18.10;10.10;;;-2.10;99.90;;;;;;5096096;28;20193;-47
2022/03/07 03:10:18;;;;;;;15.70;9.93;;;-2.10;99.90;;;;;;5096131;28;20416;-44
2022/03/07 03:12:44;;;;;;;14.40;8.73;;;-2.10;99.90;;;;;;5095811;28;20186;-45
2022/03/07 03:15:10;;;;;;;16.00;10.03;;;-2.10;99.90;;;;;;5095689;28;20488;-43
2022/03/07 03:17:41;;;;;;;17.23;10.63;;;-2.10;99.90;;;;;;5095798;28;20540;-45
2022/03/07 03:20:11;;;;;;;12.50;8.47;;;-2.00;99.90;;;;;;5095806;28;20191;-44
2022/03/07 03:22:40;;;;;;;13.10;8.87;;;-2.10;99.90;;;;;;5094963;28;20508;-45
2022/03/07 03:25:08;;;;;;;13.73;8.90;;;-2.20;99.90;;;;;;5095534;28;20906;-45
2022/03/07 03:27:34;;;;;;;14.63;8.13;;;-2.20;99.90;;;;;;5095975;28;20527;-46
2022/03/07 03:30:00;;;;;;;18.37;9.10;;;-2.20;99.90;;;;;;5095635;28;20494;-41
2022/03/07 03:32:27;;;;;;;14.77;8.47;;;-2.20;99.90;;;;;;5095637;28;20432;-44
2022/03/07 03:34:55;;;;;;;15.67;9.20;;;-2.20;99.90;;;;;;5095319;28;20537;-43
2022/03/07 03:37:21;;;;;;;12.87;8.23;;;-2.30;99.90;;;;;;5095442;28;20835;-45
2022/03/07 03:39:47;;;;;;;12.97;8.20;;;-2.30;99.90;;;;;;5095090;28;20927;-45
2022/03/07 03:42:12;;;;;;;17.77;8.90;;;-2.30;99.90;;;;;;5095467;28;20411;-43
2022/03/07 03:44:38;;;;;;;11.70;8.37;;;-2.20;99.90;;;;;;5095156;28;20637;-44
2022/03/07 03:47:04;;;;;;;17.10;8.03;;;-2.20;99.90;;;;;;5095373;28;20280;-45
2022/03/07 03:49:30;;;;;;;17.43;9.40;;;-2.20;99.90;;;;;;5095225;28;20561;-45
2022/03/07 03:51:56;;;;;;;16.57;8.97;;;-2.20;99.90;;;;;;5076831;28;20184;-46
2022/03/07 03:54:22;;;;;;;10.70;7.93;;;-2.20;99.90;;;;;;5095176;28;20420;-43
2022/03/07 03:56:48;;;;;;;11.97;7.77;;;-2.20;99.90;;;;;;5095050;28;20444;-46
2022/03/07 03:59:14;;;;;;;15.87;7.80;;;-2.20;99.90;;;;;;5095734;28;20417;-45
2022/03/07 04:01:40;;;;;;;13.47;8.77;;;-2.30;99.90;;;;;;5094641;28;20975;-44
2022/03/07 04:04:05;;;;;;;14.03;7.70;;;-2.30;99.90;;;;;;5095063;28;20558;-44
2022/03/07 04:06:31;;;;;;;12.77;7.67;;;-2.30;99.90;;;;;;5094677;28;20266;-43
2022/03/07 04:08:56;;;;;;;14.63;8.20;;;-2.30;99.90;;;;;;5095295;28;20182;-44
2022/03/07 04:11:22;;;;;;;11.10;8.20;;;-2.20;99.90;;;;;;5094876;28;20261;-46
2022/03/07 04:13:47;;;;;;;18.43;8.93;;;-2.20;99.90;;;;;;5076483;28;20238;-44
2022/03/07 04:16:14;;;;;;;18.10;9.30;;;-2.10;99.90;;;;;;5094908;28;20619;-45
2022/03/07 04:18:40;;;;;;;15.23;8.80;;;-2.10;99.90;;;;;;5094634;28;20217;-44
2022/03/07 04:21:06;;;;;;;14.80;9.33;;;-2.00;99.90;;;;;;5094621;28;20495;-45
2022/03/07 04:23:31;;;;;;;15.50;8.87;;;-2.00;99.90;;;;;;5094343;28;20218;-44
2022/03/07 04:25:57;;;;;;;15.13;9.03;;;-1.90;99.90;;;;;;5094642;28;20172;-45
2022/03/07 04:28:23;;;;;;;15.47;9.70;;;-1.90;99.90;;;;;;5094291;28;20248;-43
2022/03/07 04:30:48;;;;;;;14.47;9.20;;;-1.90;99.90;;;;;;5094228;28;20417;-45
2022/03/07 04:33:14;;;;;;;14.87;9.47;;;-1.90;99.90;;;;;;5094449;28;20195;-45
2022/03/07 04:35:39;;;;;;;14.67;8.53;;;-1.90;99.90;;;;;;5094603;28;20179;-41
2022/03/07 04:38:05;;;;;;;14.07;8.33;;;-1.90;99.90;;;;;;5094086;28;20732;-42
2022/03/07 04:40:30;;;;;;;16.77;9.40;;;-1.90;99.90;;;;;;5094307;28;20208;-41
2022/03/07 04:42:56;;;;;;;11.87;8.13;;;-1.90;99.90;;;;;;5094977;28;20191;-42
2022/03/07 04:45:22;;;;;;;13.73;8.10;;;-1.90;99.90;;;;;;5096661;28;20641;-39
2022/03/07 04:47:48;;;;;;;15.53;9.17;;;-1.90;99.90;;;;;;5096258;28;20194;-42
2022/03/07 04:50:14;;;;;;;21.23;12.67;;;-2.00;99.90;;;;;;5093941;28;20438;-41
2022/03/07 04:52:41;;;;;;;16.77;10.30;;;-2.00;99.90;;;;;;5094241;28;20639;-42
2022/03/07 04:55:08;;;;;;;14.33;8.03;;;-2.10;99.90;;;;;;5075771;28;20182;-41
2022/03/07 04:57:34;;;;;;;15.10;7.50;;;-2.20;99.90;;;;;;5094269;28;20980;-41
2022/03/07 04:59:59;;;;;;;11.83;8.40;;;-2.20;99.90;;;;;;5094322;28;20399;-38
2022/03/07 05:02:26;;;;;;;11.90;6.90;;;-2.30;99.90;;;;;;5093643;28;20231;-41
2022/03/07 05:04:52;;;;;;;13.63;7.70;;;-2.30;99.90;;;;;;5093964;28;20417;-39
2022/03/07 05:07:17;;;;;;;12.40;7.87;;;-2.40;99.90;;;;;;5093844;28;20204;-40
2022/03/07 05:09:44;;;;;;;15.50;7.47;;;-2.40;99.90;;;;;;5093637;28;20639;-37
2022/03/07 05:12:10;;;;;;;12.47;7.10;;;-2.50;99.90;;;;;;5093920;28;20554;-41
2022/03/07 05:14:36;;;;;;;13.87;6.93;;;-2.50;99.90;;;;;;5093842;28;20417;-39
2022/03/07 05:17:02;;;;;;;12.57;7.13;;;-2.60;99.90;;;;;;5093709;28;20235;-40
2022/03/07 05:19:27;;;;;;;16.50;6.57;;;-2.70;99.90;;;;;;5093563;28;20272;-39
2022/03/07 05:21:53;;;;;;;12.10;7.37;;;-2.70;99.90;;;;;;5075483;28;20623;-38
2022/03/07 05:24:19;;;;;;;14.17;7.70;;;-2.70;99.90;;;;;;5093696;28;20192;-42
2022/03/07 05:26:44;;;;;;;12.47;7.30;;;-2.70;99.90;;;;;;5093355;28;20181;-41
2022/03/07 05:29:10;;;;;;;16.80;8.60;;;-2.60;99.90;;;;;;5093388;28;20209;-40
2022/03/07 05:31:35;;;;;;;16.40;7.50;;;-2.50;99.90;;;;;;5075504;28;20545;-39
2022/03/07 05:34:01;;;;;;;21.57;6.90;;;-2.50;99.90;;;;;;5093387;28;20177;-38
2022/03/07 05:36:27;;;;;;;14.33;7.37;;;-2.40;99.90;;;;;;5093924;28;20181;-41
2022/03/07 05:38:53;;;;;;;15.37;7.60;;;-2.40;99.90;;;;;;5093291;28;20212;-39
2022/03/07 05:41:19;;;;;;;12.20;6.70;;;-2.30;99.90;;;;;;5093309;28;20462;-41
2022/03/07 05:43:44;;;;;;;15.57;7.10;;;-2.30;99.90;;;;;;5093561;28;20601;-40
2022/03/07 05:46:10;;;;;;;16.23;7.33;;;-2.30;99.90;;;;;;5097419;28;20178;-38
2022/03/07 05:48:37;;;;;;;20.07;7.37;;;-2.10;99.90;;;;;;5097362;28;20235;-40
2022/03/07 05:51:03;;;;;;;14.57;7.23;;;-2.20;99.90;;;;;;5097362;28;20188;-40
2022/03/07 05:53:28;;;;;;;10.50;6.80;;;-2.10;99.90;;;;;;5097913;28;20421;-40
2022/03/07 05:55:54;;;;;;;14.27;6.83;;;-2.10;99.90;;;;;;5097272;28;20261;-39
2022/03/07 05:58:20;;;;;;;13.97;6.87;;;-2.20;99.90;;;;;;5097723;28;20212;-45
2022/03/07 06:00:46;;;;;;;22.93;7.13;;;-2.20;99.90;;;;;;5098797;28;20457;-45
2022/03/07 06:03:11;;;;;;;19.90;7.37;;;-2.30;99.90;;;;;;5099005;28;20256;-47
2022/03/07 06:05:38;;;;;;;13.20;6.60;;;-2.30;99.90;;;;;;5080511;28;20198;-46
2022/03/07 06:08:05;;;;;;;12.13;7.17;;;-2.30;99.90;;;;;;5098453;28;20198;-46
2022/03/07 06:10:31;;;;;;;14.23;6.73;;;-2.30;99.90;;;;;;5098333;28;20476;-46
2022/03/07 06:12:57;;;;;;;10.67;6.37;;;-2.30;99.90;;;;;;5097819;28;20455;-44
2022/03/07 06:15:23;;;;;;;14.07;7.43;;;-2.30;99.90;;;;;;5097805;28;20489;-47
2022/03/07 06:17:50;;;;;;;16.97;6.87;;;-2.40;99.90;;;;;;5098039;28;20204;-47
2022/03/07 06:20:16;;;;;;;12.03;7.40;;;-2.40;99.90;;;;;;5097528;28;20454;-45
2022/03/07 06:22:41;;;;;;;22.13;9.00;;;-2.40;99.90;;;;;;5079395;28;20443;-46
2022/03/07 06:25:07;;;;;;;11.10;7.37;;;-2.50;99.90;;;;;;5079654;28;20600;-46
2022/03/07 06:27:33;;;;;;;11.53;7.27;;;-2.50;99.90;;;;;;5097914;28;20202;-45
2022/03/07 06:29:58;;;;;;;17.27;7.20;;;-2.50;99.90;;;;;;5097791;28;20542;-46
2022/03/07 06:32:24;;;;;;;10.83;7.30;;;-2.30;99.90;;;;;;5097361;28;20186;-46
2022/03/07 06:34:50;;;;;;;10.03;6.77;;;-2.30;99.90;;;;;;5098015;28;20201;-46
2022/03/07 06:37:16;;;;;;;13.10;7.10;;;-2.30;99.90;;;;;;5097454;28;20467;-44
2022/03/07 06:39:41;;;;;;;12.33;7.27;;;-2.20;99.90;;;;;;5097654;28;20181;-44
2022/03/07 06:42:07;;;;;;;15.30;7.03;;;-2.10;99.90;;;;;;5097810;28;20198;-46
2022/03/07 06:44:33;;;;;;;23.43;7.30;;;-2.10;99.90;;;;;;5097744;28;20201;-45
2022/03/07 06:46:59;;;;;;;13.83;7.07;;;-2.10;99.90;;;;;;5097766;28;20194;-44
2022/03/07 06:49:25;;;;;;;12.37;7.87;;;-2.00;99.90;;;;;;5097581;28;20173;-46
2022/03/07 06:51:50;;;;;;;16.70;7.13;;;-2.10;99.90;;;;;;5097915;28;20185;-46
2022/03/07 06:54:16;;;;;;;11.10;6.40;;;-2.00;99.90;;;;;;5086435;28;20210;-45
2022/03/07 06:56:42;;;;;;;14.87;7.30;;;-2.00;99.90;;;;;;5099395;28;20193;-44
2022/03/07 06:59:07;;;;;;;9.00;6.07;;;-2.00;99.90;;;;;;5097716;28;20192;-44
2022/03/07 07:01:33;;;;;;;9.97;6.47;;;-1.90;99.90;;;;;;5079771;28;20251;-44
2022/03/07 07:03:59;;;;;;;10.23;6.20;;;-1.80;99.90;;;;;;5097543;28;20185;-46
2022/03/07 07:06:24;;;;;;;8.50;6.03;;;-1.70;99.90;;;;;;5097950;28;20647;-46
2022/03/07 07:08:50;;;;;;;10.13;6.23;;;-1.60;99.90;;;;;;5097707;28;20243;-46
2022/03/07 07:11:16;;;;;;;9.73;6.27;;;-1.50;99.90;;;;;;5097538;28;20189;-44
2022/03/07 07:13:41;;;;;;;8.87;6.33;;;-1.40;99.90;;;;;;5097372;28;20261;-44
2022/03/07 07:16:07;;;;;;;6.93;5.40;;;-1.40;99.90;;;;;;5098068;28;20213;-46
2022/03/07 07:18:32;;;;;;;7.17;5.50;;;-1.30;99.90;;;;;;5097465;28;20284;-46
2022/03/07 07:20:58;;;;;;;8.80;5.13;;;-1.30;99.90;;;;;;5097808;28;20199;-44
2022/03/07 07:23:24;;;;;;;8.20;5.47;;;-1.20;99.90;;;;;;5097737;28;20208;-45
2022/03/07 07:25:49;;;;;;;5.77;4.87;;;-1.10;99.90;;;;;;5097823;28;20630;-46
2022/03/07 07:28:15;;;;;;;8.00;4.53;;;-1.00;99.90;;;;;;5080318;28;20238;-44
2022/03/07 07:30:41;;;;;;;7.40;4.53;;;-0.80;99.90;;;;;;5098175;28;20181;-45
2022/03/07 07:33:07;;;;;;;7.27;4.67;;;-0.70;99.90;;;;;;5080156;28;20209;-44
2022/03/07 07:35:35;;;;;;;7.30;5.27;;;-0.60;99.90;;;;;;5081171;28;20206;-45
2022/03/07 07:38:02;;;;;;;7.77;4.70;;;-0.50;99.90;;;;;;5100552;28;20213;-46
2022/03/07 07:40:27;;;;;;;9.00;5.77;;;-0.40;99.90;;;;;;5100485;28;20448;-45
2022/03/07 07:42:53;;;;;;;7.03;4.93;;;-0.30;99.90;;;;;;5079979;28;20887;-45
2022/03/07 07:45:18;;;;;;;6.03;4.77;;;-0.20;99.90;;;;;;5098306;28;20174;-45
2022/03/07 07:47:45;;;;;;;6.47;5.10;;;-0.10;99.90;;;;;;5098040;28;20202;-45
2022/03/07 07:50:10;;;;;;;4.80;3.90;;;0.00;99.90;;;;;;5097539;28;20171;-45
2022/03/07 07:52:36;;;;;;;10.37;4.57;;;0.20;99.90;;;;;;5098051;28;20911;-44
2022/03/07 07:55:05;;;;;;;6.57;4.30;;;0.30;99.90;;;;;;5097956;28;20653;-46
2022/03/07 07:57:31;;;;;;;7.17;4.87;;;0.50;99.90;;;;;;5097991;28;20567;-45
2022/03/07 07:59:57;;;;;;;5.83;4.70;;;0.60;99.90;;;;;;5097779;28;20417;-46
2022/03/07 08:02:22;;;;;;;7.73;4.73;;;0.70;99.90;;;;;;5097357;28;20488;-44
2022/03/07 08:04:51;;;;;;;6.00;4.37;;;0.90;99.90;;;;;;5097213;28;20912;-44
2022/03/07 08:07:17;;;;;;;6.30;4.53;;;1.00;99.90;;;;;;5078763;28;20207;-46
2022/03/07 08:09:43;;;;;;;7.07;4.90;;;1.10;99.90;;;;;;5079105;28;20428;-46
2022/03/07 08:12:10;;;;;;;5.53;4.00;;;1.20;99.90;;;;;;5079085;28;20431;-45
2022/03/07 08:14:36;;;;;;;4.93;3.93;;;1.30;99.90;;;;;;5078261;28;20178;-45
2022/03/07 08:17:03;;;;;;;4.20;3.67;;;1.40;99.90;;;;;;5096708;28;20835;-45
2022/03/07 08:19:29;;;;;;;4.43;3.90;;;1.50;99.90;;;;;;5096271;28;20424;-47
2022/03/07 08:21:55;;;;;;;5.47;4.43;;;1.60;99.90;;;;;;5077983;28;20457;-46
2022/03/07 08:24:20;;;;;;;4.97;4.30;;;1.60;99.90;;;;;;5095925;28;20167;-46
2022/03/07 08:26:46;;;;;;;11.97;4.60;;;1.70;99.90;;;;;;5095937;28;20549;-46
2022/03/07 08:29:12;;;;;;;5.20;4.17;;;1.80;99.90;;;;;;5095645;28;20171;-45
2022/03/07 08:31:37;;;;;;;4.43;3.53;;;1.90;99.90;;;;;;5077865;28;20215;-45
2022/03/07 08:34:03;;;;;;;6.53;3.90;;;2.00;99.90;;;;;;5096827;28;20618;-46
2022/03/07 08:36:31;;;;;;;9.87;2.70;;;2.10;99.90;;;;;;5095680;28;20179;-45
2022/03/07 08:38:57;;;;;;;4.37;3.27;;;2.20;99.90;;;;;;5095706;28;20179;-46
2022/03/07 08:41:23;;;;;;;4.43;3.20;;;2.20;99.90;;;;;;5095905;28;20543;-48
2022/03/07 08:43:50;;;;;;;5.13;3.80;;;2.30;99.90;;;;;;5096035;28;20632;-46
2022/03/07 08:46:16;;;;;;;3.80;3.40;;;2.30;99.90;;;;;;5096073;28;20209;-46
2022/03/07 08:48:41;;;;;;;4.03;2.80;;;2.40;99.90;;;;;;5095945;28;20509;-47
2022/03/07 08:51:07;;;;;;;5.33;3.53;;;2.50;99.90;;;;;;5077820;28;20607;-46
2022/03/07 08:53:33;;;;;;;6.67;3.90;;;2.50;99.90;;;;;;5077352;28;20231;-47
2022/03/07 08:55:58;;;;;;;3.10;2.80;;;2.60;99.90;;;;;;5077793;28;20184;-46
2022/03/07 08:58:24;;;;;;;3.67;3.10;;;2.70;99.90;;;;;;5095806;28;20200;-46
2022/03/07 09:00:50;;;;;;;4.80;3.70;;;2.70;99.90;;;;;;5094998;28;20293;-46
2022/03/07 09:03:16;;;;;;;6.13;4.00;;;2.80;99.90;;;;;;5095304;28;20180;-46
2022/03/07 09:05:41;;;;;;;5.83;3.40;;;2.90;99.90;;;;;;5096068;28;20809;-46
2022/03/07 09:08:07;;;;;;;4.03;2.37;;;2.90;99.90;;;;;;5095124;28;20249;-45
2022/03/07 09:10:32;;;;;;;6.60;3.40;;;3.00;99.90;;;;;;5094026;28;20189;-46
2022/03/07 09:12:58;;;;;;;7.23;3.43;;;2.90;99.90;;;;;;5093898;28;20189;-45
2022/03/07 09:15:24;;;;;;;5.37;3.90;;;3.00;99.90;;;;;;5075481;28;20648;-45
2022/03/07 09:17:49;;;;;;;6.13;3.33;;;3.00;99.90;;;;;;5093716;28;20666;-45
2022/03/07 09:20:17;;;;;;;4.57;3.70;;;3.10;99.90;;;;;;5093048;28;20185;-44
2022/03/07 09:22:43;;;;;;;5.27;3.50;;;3.10;99.90;;;;;;5093614;28;20649;-45
2022/03/07 09:25:10;;;;;;;4.93;3.23;;;3.20;99.90;;;;;;5075707;28;20592;-46
2022/03/07 09:27:35;;;;;;;4.90;3.87;;;3.20;99.90;;;;;;5093865;28;20273;-44
2022/03/07 09:30:03;;;;;;;5.20;3.47;;;3.30;99.90;;;;;;5075234;28;20586;-46
2022/03/07 09:32:29;;;;;;;4.30;3.40;;;3.40;99.90;;;;;;5093339;28;20179;-46
2022/03/07 09:34:55;;;;;;;4.03;3.57;;;3.40;99.90;;;;;;5093685;28;20268;-44
2022/03/07 09:37:20;;;;;;;4.63;3.70;;;3.50;99.90;;;;;;5094141;28;20199;-47
2022/03/07 09:39:46;;;;;;;5.10;3.67;;;3.60;99.90;;;;;;5093905;28;20231;-44
2022/03/07 09:42:12;;;;;;;5.60;3.60;;;3.70;99.90;;;;;;5075457;28;20198;-46
2022/03/07 09:44:37;;;;;;;3.30;3.00;;;3.80;99.90;;;;;;5093847;28;20254;-45
2022/03/07 09:47:04;;;;;;;6.17;3.53;;;3.80;99.90;;;;;;5094565;28;20191;-46
2022/03/07 09:49:31;;;;;;;5.63;3.70;;;3.90;99.90;;;;;;5096332;28;20218;-46
2022/03/07 09:51:58;;;;;;;5.63;3.90;;;3.90;99.90;;;;;;5094302;28;20175;-47
2022/03/07 09:54:24;;;;;;;3.63;2.80;;;4.00;99.90;;;;;;5093329;28;20257;-46
2022/03/07 09:56:51;;;;;;;4.63;3.63;;;4.00;99.90;;;;;;5093167;28;20187;-46
2022/03/07 09:59:17;;;;;;;5.70;3.53;;;4.10;99.90;;;;;;5093221;28;20186;-46
2022/03/07 10:01:44;;;;;;;5.23;3.83;;;4.10;99.90;;;;;;5093260;28;20205;-47
2022/03/07 10:04:12;;;;;;;7.30;3.63;;;4.20;99.90;;;;;;5075060;28;20179;-46
2022/03/07 10:06:47;;;;;;;8.40;3.80;;;4.30;99.90;;;;;;5093019;28;20171;-46
2022/03/07 10:09:20;;;;;;;4.60;3.53;;;4.40;99.90;;;;;;5093344;28;20168;-48
2022/03/07 10:12:00;;;;;;;6.00;3.80;;;4.40;99.90;;;;;;5093464;28;20223;-47
2022/03/07 10:14:41;;;;;;;6.10;3.97;;;4.50;99.90;;;;;;5093381;28;20166;-45
2022/03/07 10:17:24;;;;;;;4.17;3.57;;;4.50;99.90;;;;;;5093225;28;20204;-48
2022/03/07 10:19:53;;;;;;;5.57;3.37;;;4.50;99.90;;;;;;5093136;28;20185;-46
2022/03/07 10:22:29;;;;;;;3.33;2.90;;;4.60;99.90;;;;;;5093235;28;20715;-46
2022/03/07 10:25:05;;;;;;;4.13;3.50;;;4.70;99.90;;;;;;5092934;28;20166;-49
2022/03/07 10:27:37;;;;;;;4.50;3.80;;;4.80;99.90;;;;;;5092820;28;20206;-47
2022/03/07 10:30:08;;;;;;;6.33;3.83;;;4.80;99.90;;;;;;5093393;28;20182;-47
2022/03/07 10:32:33;;;;;;;5.43;3.93;;;4.70;99.90;;;;;;5096555;28;20224;-47
2022/03/07 10:34:59;;;;;;;4.40;3.20;;;4.80;99.90;;;;;;5096858;28;20571;-49
2022/03/07 10:37:32;;;;;;;5.73;3.90;;;5.00;99.90;;;;;;5096696;28;20194;-48
2022/03/07 10:39:58;;;;;;;4.93;3.90;;;5.00;99.90;;;;;;5096419;28;20707;-47
2022/03/07 10:42:23;;;;;;;7.17;3.70;;;5.10;99.90;;;;;;5096929;28;20206;-44
2022/03/07 10:44:49;;;;;;;4.17;3.70;;;5.20;99.90;;;;;;5096380;28;20677;-47
2022/03/07 10:47:17;;;;;;;5.43;4.47;;;5.20;99.90;;;;;;5096563;28;20195;-45
2022/03/07 10:49:49;;;;;;;11.33;4.70;;;5.30;99.90;;;;;;5078460;28;20179;-47
2022/03/07 10:52:15;;;;;;;4.47;3.97;;;5.10;99.90;;;;;;5096798;28;20663;-47
2022/03/07 10:54:41;;;;;;;6.50;4.13;;;5.10;99.90;;;;;;5079166;28;20235;-42
2022/03/07 10:57:08;;;;;;;5.43;3.60;;;5.20;99.90;;;;;;5101606;28;20204;-43
2022/03/07 10:59:36;;;;;;;6.07;3.90;;;5.30;99.90;;;;;;5100698;28;20171;-42
2022/03/07 11:02:09;;;;;;;4.73;4.07;;;5.40;99.90;;;;;;5101533;28;20206;-42
2022/03/07 11:04:38;;;;;;;5.27;4.13;;;5.50;99.90;;;;;;5096542;28;20167;-41
2022/03/07 11:07:05;;;;;;;4.57;3.77;;;5.60;99.90;;;;;;5096598;28;20203;-42
2022/03/07 11:09:31;;;;;;;6.37;3.80;;;5.70;99.90;;;;;;5096482;28;20643;-41
2022/03/07 11:11:58;;;;;;;5.27;4.00;;;5.80;99.90;;;;;;5077705;28;20536;-41
2022/03/07 11:14:25;;;;;;;5.70;4.17;;;5.90;99.90;;;;;;5095905;28;20179;-41
2022/03/07 11:16:56;;;;;;;3.83;3.20;;;6.00;99.90;;;;;;5095732;28;20277;-39
2022/03/07 11:19:23;;;;;;;4.10;3.20;;;6.10;99.90;;;;;;5095800;28;20659;-43
2022/03/07 11:21:51;;;;;;;5.77;4.00;;;6.20;99.90;;;;;;5095888;28;20239;-44
2022/03/07 11:24:22;;;;;;;6.90;3.50;;;6.00;99.90;;;;;;5095690;28;20177;-39
2022/03/07 11:26:48;;;;;;;4.10;3.70;;;6.00;99.90;;;;;;5095659;28;20155;-41
2022/03/07 11:29:16;;;;;;;4.63;4.03;;;6.10;99.90;;;;;;5077407;28;20181;-40
2022/03/07 11:31:42;;;;;;;5.23;3.90;;;6.30;99.90;;;;;;5096055;28;20258;-41
2022/03/07 11:34:09;;;;;;;7.63;4.17;;;6.40;99.90;;;;;;5095486;28;20682;-38
2022/03/07 11:36:49;;;;;;;8.13;4.43;;;6.30;99.90;;;;;;5095410;28;20524;-41
2022/03/07 11:39:29;;;;;;;4.13;3.50;;;6.20;99.90;;;;;;5077341;28;20178;-39
2022/03/07 11:41:55;;;;;;;5.03;4.00;;;6.30;99.90;;;;;;5094891;28;20198;-40
2022/03/07 11:44:22;;;;;;;5.47;3.70;;;6.40;99.90;;;;;;5095244;28;20270;-41
2022/03/07 11:46:51;;;;;;;5.90;3.70;;;6.50;99.90;;;;;;5095416;28;21285;-40
2022/03/07 11:49:28;;;;;;;6.10;3.47;;;6.60;99.90;;;;;;5095092;28;20202;-41
2022/03/07 11:52:00;;;;;;;5.80;3.33;;;6.80;99.90;;;;;;5095123;28;20626;-39
2022/03/07 11:54:25;;;;;;;4.67;3.37;;;6.80;99.90;;;;;;5095001;28;20207;-42
2022/03/07 11:56:51;;;;;;;4.73;3.40;;;6.90;99.90;;;;;;5095258;28;20226;-41
2022/03/07 11:59:29;;;;;;;5.67;3.70;;;7.00;99.90;;;;;;5095027;28;20191;-39
2022/03/07 12:01:55;;;;;;;4.73;3.47;;;7.10;99.90;;;;;;5094980;28;20214;-42
2022/03/07 12:04:21;;;;;;;5.20;3.80;;;7.10;99.90;;;;;;5095174;28;20206;-41
2022/03/07 12:06:49;;;;;;;4.13;3.60;;;7.20;99.90;;;;;;5094782;28;20278;-39
2022/03/07 12:09:32;;;;;;;3.50;3.20;;;7.30;99.90;;;;;;5094720;28;20191;-42
2022/03/07 12:12:09;;;;;;;3.53;3.10;;;7.30;99.90;;;;;;5094996;28;20186;-41
2022/03/07 12:14:44;;;;;;;5.50;4.23;;;7.40;99.90;;;;;;5094812;28;20175;-42
2022/03/07 12:17:30;;;;;;;5.13;3.80;;;7.50;99.90;;;;;;5095089;28;20198;-40
2022/03/07 12:19:57;;;;;;;4.40;3.53;;;7.70;99.90;;;;;;5076680;28;20182;-39
2022/03/07 12:22:25;;;;;;;4.63;3.00;;;7.70;99.90;;;;;;5094921;28;20305;-40
2022/03/07 12:24:54;;;;;;;6.93;3.30;;;7.70;99.90;;;;;;5094479;28;20673;-41
2022/03/07 12:27:22;;;;;;;4.93;3.80;;;7.80;99.90;;;;;;5094250;28;20674;-43
2022/03/07 12:29:51;;;;;;;6.37;3.60;;;7.90;99.90;;;;;;5094883;28;20167;-43
2022/03/07 12:32:17;;;;;;;4.43;3.57;;;7.90;99.90;;;;;;5095421;28;20205;-40
2022/03/07 12:34:43;;;;;;;5.07;3.40;;;8.10;99.90;;;;;;5094471;28;20188;-42
2022/03/07 12:37:16;;;;;;;5.17;3.50;;;8.10;99.90;;;;;;5075999;28;20584;-43
2022/03/07 12:39:49;;;;;;;3.40;3.10;;;8.20;99.90;;;;;;5094396;28;20197;-41
2022/03/07 12:42:18;;;;;;;6.20;3.70;;;8.20;99.90;;;;;;5094411;28;20336;-41
2022/03/07 12:44:44;;;;;;;4.00;3.60;;;8.20;99.90;;;;;;5094087;28;20185;-40